KLZZ

Details ICAO KLZZ
Name LAMPASAS
Region United States
Timezone America/Chicago (UTC-6.0)
Plans Departing 1
Arriving 3
Stats Elevation 1,215 ft / 370 m (AMSL)
Location 31.106195° -98.195893°
Runways 1
Magnetic Variation 4.108° E
Sunrise 2017-12-14 13:24:41 UTC / 2017-12-14 07:24:41 Local
Sunset 2017-12-14 23:33:18 UTC / 2017-12-14 17:33:18 Local
Advertisement - Login to hide

Runways

ID Width Length Bearing (true) Bearing (mag) Surface Threshold Offset Overrun Length
16 75 ft / 23 m 4,213 ft / 1,284 m 170.76° 166.65° Asphalt 0 ft / 0 m 0 ft / 0 m
34 75 ft / 23 m 4,213 ft / 1,284 m 350.77° 346.66° Asphalt 0 ft / 0 m 0 ft / 0 m

Map

Weather


0- 5 10 15 20 25 30 35+ Temperature / ° C

Clouds and Precipitation
Forecast for 2017-12-14 12:00 UTC. Updated 2 hours ago

Ground ~20,000 ft ~40,000 ft Winds

METAR

KLZZ 141315Z AUTO 30005KT 10SM CLR 08/M01 A2994 RMK AO2 T00761006

TAF

Not found

Frequencies

Recorded 119.07 MHz AWOS 3
Approach 120.07 MHz GRAY APP/DEP
Unicom 122.80 MHz CTAF/UNICOM
Warning: Do not use this data for real-world aviation or navigation. No guarantee of current accuracy is given.